createdAt,value
2023-05-11T00:00:39.741Z,7.97
2023-05-11T00:03:06.713Z,8.70
2023-05-11T00:05:33.478Z,7.25
2023-05-11T00:08:00.115Z,6.00
2023-05-11T00:10:28.613Z,6.22
2023-05-11T00:15:22.084Z,7.53
2023-05-11T00:17:48.722Z,9.60
2023-05-11T00:20:15.527Z,8.05
2023-05-11T00:22:44.649Z,7.90
2023-05-11T00:25:11.490Z,8.55
2023-05-11T00:27:38.102Z,7.30
2023-05-11T00:30:05.654Z,9.52
2023-05-11T00:32:32.290Z,9.55
2023-05-11T00:34:58.889Z,8.18
2023-05-11T00:37:26.249Z,8.57
2023-05-11T00:39:53.051Z,8.38
2023-05-11T00:42:19.723Z,10.15
2023-05-11T00:44:46.388Z,8.43
2023-05-11T00:47:13.329Z,8.85
2023-05-11T00:49:40.063Z,7.60
2023-05-11T00:52:07.613Z,6.55
2023-05-11T00:54:35.848Z,6.63
2023-05-11T00:57:04.078Z,7.90
2023-05-11T00:59:30.824Z,6.75
2023-05-11T01:01:57.552Z,6.15
2023-05-11T01:04:24.326Z,7.40
2023-05-11T01:07:12.663Z,7.55
2023-05-11T01:12:13.577Z,6.10
2023-05-11T01:14:57.800Z,7.50
2023-05-11T01:17:34.778Z,7.40
2023-05-11T01:20:07.527Z,7.10
2023-05-11T01:22:34.055Z,8.02
2023-05-11T01:25:03.639Z,8.02
2023-05-11T01:28:21.486Z,7.32
2023-05-11T01:31:11.051Z,8.27
2023-05-11T01:33:41.181Z,8.35
2023-05-11T01:36:10.398Z,7.90
2023-05-11T01:38:40.988Z,7.43
2023-05-11T01:41:15.376Z,7.75
2023-05-11T01:43:44.596Z,7.35
2023-05-11T01:46:13.101Z,7.30
2023-05-11T01:51:07.845Z,9.75
2023-05-11T01:53:36.008Z,10.70
2023-05-11T01:56:04.070Z,9.68
2023-05-11T01:58:31.274Z,9.75
2023-05-11T02:01:00.247Z,9.20
2023-05-11T02:03:28.893Z,9.63
2023-05-11T02:05:57.191Z,9.75
2023-05-11T02:08:25.845Z,9.02
2023-05-11T02:10:53.760Z,9.05
2023-05-11T02:13:20.781Z,9.82
2023-05-11T02:15:47.830Z,8.55
2023-05-11T02:18:15.106Z,9.23
2023-05-11T02:20:43.497Z,8.98
2023-05-11T02:23:10.399Z,8.65
2023-05-11T02:25:38.486Z,9.13
2023-05-11T02:28:06.040Z,9.52
2023-05-11T02:30:35.639Z,8.60
2023-05-11T02:33:06.198Z,8.10
2023-05-11T02:35:35.765Z,8.02
2023-05-11T02:38:03.925Z,7.60
2023-05-11T02:40:34.942Z,8.27
2023-05-11T02:43:09.505Z,7.72
2023-05-11T02:45:36.654Z,8.13
2023-05-11T02:48:08.406Z,7.85
2023-05-11T02:50:40.041Z,7.43
2023-05-11T02:53:11.006Z,7.22
2023-05-11T02:55:37.638Z,8.60
2023-05-11T02:58:04.260Z,9.00
2023-05-11T03:00:30.920Z,7.95
2023-05-11T03:02:58.053Z,8.65
2023-05-11T03:05:24.928Z,9.05
2023-05-11T03:07:53.228Z,8.40
2023-05-11T03:10:20.134Z,8.82
2023-05-11T03:12:46.999Z,9.18
2023-05-11T03:15:13.787Z,8.95
2023-05-11T03:17:41.089Z,9.05
2023-05-11T03:20:08.897Z,8.45
2023-05-11T03:22:38.043Z,8.10
2023-05-11T03:25:05.541Z,9.27
2023-05-11T03:27:32.398Z,9.57
2023-05-11T03:30:00.355Z,9.00
2023-05-11T03:32:27.088Z,10.05
2023-05-11T03:34:53.742Z,8.75
2023-05-11T03:37:20.689Z,9.68
2023-05-11T03:39:52.746Z,9.90
2023-05-11T03:42:20.996Z,8.50
2023-05-11T03:44:49.545Z,7.97
2023-05-11T03:49:43.441Z,8.57
2023-05-11T03:52:10.709Z,9.68
2023-05-11T03:54:37.664Z,9.10
2023-05-11T03:57:04.415Z,10.20
2023-05-11T03:59:31.000Z,9.15
2023-05-11T04:01:58.811Z,9.00
2023-05-11T04:04:30.531Z,8.40
2023-05-11T04:07:01.047Z,8.93
2023-05-11T04:09:27.587Z,9.30
2023-05-11T04:11:54.150Z,7.93
2023-05-11T04:14:20.885Z,9.10
2023-05-11T04:16:47.485Z,8.88
2023-05-11T04:19:14.181Z,8.18
2023-05-11T04:21:41.143Z,6.95
2023-05-11T04:24:07.908Z,7.82
2023-05-11T04:26:34.626Z,7.85
2023-05-11T04:29:01.167Z,8.15
2023-05-11T04:31:27.764Z,7.60
2023-05-11T04:33:54.387Z,7.85
2023-05-11T04:36:22.307Z,8.20
2023-05-11T04:38:48.893Z,8.32
2023-05-11T04:41:16.414Z,7.53
2023-05-11T04:43:42.989Z,7.55
2023-05-11T04:46:09.627Z,7.63
2023-05-11T04:48:36.245Z,8.20
2023-05-11T04:51:06.273Z,8.32
2023-05-11T04:53:33.309Z,7.15
2023-05-11T04:55:59.938Z,7.05
2023-05-11T04:58:26.554Z,8.23
2023-05-11T05:00:53.199Z,7.28
2023-05-11T05:03:19.872Z,6.50
2023-05-11T05:05:46.483Z,7.03
2023-05-11T05:08:13.327Z,7.60
2023-05-11T05:10:39.985Z,6.78
2023-05-11T05:13:06.774Z,7.18
2023-05-11T05:15:33.353Z,6.32
2023-05-11T05:18:00.011Z,5.53
2023-05-11T05:20:26.637Z,5.75
2023-05-11T05:22:55.250Z,6.53
2023-05-11T05:25:22.320Z,5.70
2023-05-11T05:27:48.893Z,5.80
2023-05-11T05:30:15.631Z,5.35
2023-05-11T05:32:42.413Z,5.78
2023-05-11T05:35:09.416Z,5.07
2023-05-11T05:37:37.555Z,4.40
2023-05-11T05:40:05.286Z,4.47
2023-05-11T05:42:31.828Z,4.30
2023-05-11T05:44:58.561Z,3.88
2023-05-11T05:47:25.213Z,3.78
2023-05-11T05:49:51.820Z,3.80
2023-05-11T05:52:18.407Z,3.20
2023-05-11T05:54:44.980Z,3.83
2023-05-11T05:57:12.772Z,3.70
2023-05-11T05:59:40.946Z,4.13
2023-05-11T06:02:08.515Z,3.85
2023-05-11T06:04:35.128Z,4.13
2023-05-11T06:07:01.704Z,3.78
2023-05-11T06:09:28.244Z,3.90
2023-05-11T06:11:54.838Z,3.95
2023-05-11T06:14:22.505Z,4.03
2023-05-11T06:16:54.889Z,3.63
2023-05-11T06:19:21.530Z,4.07
2023-05-11T06:21:48.631Z,3.65
2023-05-11T06:24:15.248Z,3.63
2023-05-11T06:26:41.853Z,4.18
2023-05-11T06:29:08.435Z,4.47
2023-05-11T06:31:35.060Z,4.43
2023-05-11T06:34:01.694Z,4.38
2023-05-11T06:36:28.439Z,5.13
2023-05-11T06:38:57.782Z,5.05
2023-05-11T06:41:24.635Z,5.30
2023-05-11T06:43:51.281Z,5.28
2023-05-11T06:46:18.102Z,4.97
2023-05-11T06:48:44.917Z,6.75
2023-05-11T06:51:12.077Z,6.22
2023-05-11T06:53:39.595Z,5.35
2023-05-11T06:56:06.513Z,5.72
2023-05-11T06:58:33.131Z,6.10
2023-05-11T07:00:59.748Z,5.93
2023-05-11T07:03:26.789Z,6.20
2023-05-11T07:05:53.423Z,5.20
2023-05-11T07:08:20.401Z,5.68
2023-05-11T07:10:47.037Z,4.60
2023-05-11T07:13:14.305Z,4.28
2023-05-11T07:15:40.995Z,4.07
2023-05-11T07:18:07.628Z,4.30
2023-05-11T07:20:36.663Z,3.88
2023-05-11T07:23:03.657Z,3.40
2023-05-11T07:25:30.444Z,3.58
2023-05-11T07:27:57.138Z,3.13
2023-05-11T07:30:24.647Z,3.47
2023-05-11T07:32:51.646Z,2.88
2023-05-11T07:35:18.357Z,2.97
2023-05-11T07:37:44.961Z,2.88
2023-05-11T07:40:12.208Z,2.83
2023-05-11T07:42:38.843Z,2.78
2023-05-11T07:45:06.260Z,2.35
2023-05-11T07:47:35.147Z,2.25
2023-05-11T07:50:03.427Z,2.05
2023-05-11T07:52:30.018Z,2.00
2023-05-11T07:54:56.666Z,2.70
2023-05-11T07:57:23.268Z,3.20
2023-05-11T07:59:49.886Z,3.08
2023-05-11T08:02:16.578Z,4.20
2023-05-11T08:04:43.722Z,3.70
2023-05-11T08:07:10.810Z,3.60
2023-05-11T08:09:37.492Z,3.55
2023-05-11T08:12:04.681Z,4.63
2023-05-11T08:14:31.337Z,5.00
2023-05-11T08:16:57.980Z,4.57
2023-05-11T08:19:24.603Z,3.92
2023-05-11T08:21:51.238Z,3.75
2023-05-11T08:24:17.873Z,3.65
2023-05-11T08:26:44.855Z,4.50
2023-05-11T08:29:12.605Z,4.60
2023-05-11T08:31:40.409Z,4.28
2023-05-11T08:34:18.201Z,3.70
2023-05-11T08:36:45.449Z,3.20
2023-05-11T08:39:12.040Z,3.58
2023-05-11T08:41:42.970Z,2.83
2023-05-11T08:44:11.092Z,3.28
2023-05-11T08:46:40.671Z,3.47
2023-05-11T08:49:07.744Z,3.00
2023-05-11T08:51:34.638Z,3.10
2023-05-11T08:54:01.185Z,2.88
2023-05-11T08:56:29.979Z,3.35
2023-05-11T08:58:57.790Z,3.20
2023-05-11T09:01:30.348Z,2.90
2023-05-11T09:03:57.149Z,3.03
2023-05-11T09:06:24.720Z,2.70
2023-05-11T09:08:51.367Z,3.90
2023-05-11T09:11:18.283Z,3.38
2023-05-11T09:13:44.926Z,3.72
2023-05-11T09:16:27.702Z,4.20
2023-05-11T09:19:00.851Z,3.70
2023-05-11T09:21:28.101Z,3.60
2023-05-11T09:23:56.293Z,4.30
2023-05-11T09:26:29.998Z,4.22
2023-05-11T09:31:39.300Z,4.22
2023-05-11T09:34:12.334Z,4.10
2023-05-11T09:36:39.063Z,4.50
2023-05-11T09:39:05.688Z,4.40
2023-05-11T09:44:19.796Z,4.68
2023-05-11T09:46:47.617Z,3.80
2023-05-11T09:49:14.289Z,3.97
2023-05-11T09:51:41.183Z,4.20
2023-05-11T09:54:19.053Z,4.47
2023-05-11T09:56:50.817Z,4.80
2023-05-11T09:59:36.922Z,4.97
2023-05-11T10:02:23.372Z,4.20
2023-05-11T10:04:55.567Z,4.53
2023-05-11T10:07:34.245Z,4.93
2023-05-11T10:10:06.043Z,4.70
2023-05-11T10:12:33.883Z,5.03
2023-05-11T10:15:07.958Z,5.57
2023-05-11T10:17:35.264Z,5.72
2023-05-11T10:20:04.648Z,5.68
2023-05-11T10:22:31.809Z,5.07
2023-05-11T10:24:59.387Z,5.47
2023-05-11T10:27:26.305Z,6.35
2023-05-11T10:29:52.950Z,6.88
2023-05-11T10:32:20.473Z,6.32
2023-05-11T10:34:48.114Z,5.88
2023-05-11T10:37:18.077Z,6.27
2023-05-11T10:39:48.451Z,7.22
2023-05-11T10:42:37.823Z,6.70
2023-05-11T10:45:18.120Z,5.45
2023-05-11T10:48:18.521Z,5.78
2023-05-11T10:51:12.507Z,6.68
2023-05-11T10:54:07.914Z,6.65
2023-05-11T10:57:03.845Z,5.93
2023-05-11T10:59:42.559Z,8.35
2023-05-11T11:02:10.753Z,7.85
2023-05-11T11:04:46.672Z,8.68
2023-05-11T11:07:19.862Z,8.60
2023-05-11T11:09:51.090Z,7.85
2023-05-11T11:12:17.755Z,7.97
2023-05-11T11:15:00.765Z,7.90
2023-05-11T11:17:31.633Z,8.68
2023-05-11T11:20:01.077Z,8.77
2023-05-11T11:22:41.280Z,7.22
2023-05-11T11:25:15.506Z,9.45
2023-05-11T11:27:45.156Z,8.20
2023-05-11T11:30:21.626Z,8.50
2023-05-11T11:32:50.001Z,8.15
2023-05-11T11:38:03.304Z,9.05
2023-05-11T11:40:49.983Z,7.47
2023-05-11T11:43:22.035Z,6.82
2023-05-11T11:46:01.996Z,8.00
2023-05-11T11:48:36.404Z,7.70
2023-05-11T11:51:08.581Z,6.63
2023-05-11T11:53:38.389Z,5.72
2023-05-11T11:56:08.169Z,6.80
2023-05-11T11:58:46.942Z,6.45
2023-05-11T12:01:18.012Z,9.88
2023-05-11T12:03:47.259Z,9.68
2023-05-11T12:06:14.137Z,8.32
2023-05-11T12:08:43.068Z,7.88
2023-05-11T12:11:09.707Z,8.70
2023-05-11T12:13:36.503Z,9.35
2023-05-11T12:16:12.917Z,10.05
2023-05-11T12:18:40.908Z,7.72
2023-05-11T12:21:07.882Z,7.93
2023-05-11T12:23:35.601Z,8.43
2023-05-11T12:26:06.466Z,8.90
2023-05-11T12:28:34.505Z,8.20
2023-05-11T12:31:02.181Z,7.57
2023-05-11T12:33:29.486Z,8.23
2023-05-11T12:35:57.232Z,6.88
2023-05-11T12:38:23.817Z,9.02
2023-05-11T12:40:52.918Z,7.38
2023-05-11T12:43:21.612Z,8.50
2023-05-11T12:45:48.970Z,7.85
2023-05-11T12:48:16.045Z,6.82
2023-05-11T12:50:44.407Z,7.03
2023-05-11T12:53:20.708Z,8.63
2023-05-11T12:55:58.869Z,7.22
2023-05-11T12:58:26.438Z,8.70
2023-05-11T13:00:58.821Z,8.13
2023-05-11T13:03:28.782Z,8.15
2023-05-11T13:06:10.024Z,7.65
2023-05-11T13:08:37.794Z,9.68
2023-05-11T13:11:24.996Z,8.32
2023-05-11T13:13:53.830Z,9.50
2023-05-11T13:16:32.071Z,10.13
2023-05-11T13:19:03.906Z,10.40
2023-05-11T13:21:33.363Z,9.32
2023-05-11T13:24:00.752Z,8.55
2023-05-11T13:26:30.134Z,8.05
2023-05-11T13:29:09.206Z,9.32
2023-05-11T13:31:45.975Z,8.88
2023-05-11T13:34:13.133Z,8.70
2023-05-11T13:36:40.183Z,8.80
2023-05-11T13:39:07.212Z,7.53
2023-05-11T13:41:34.829Z,6.78
2023-05-11T13:44:01.698Z,7.72
2023-05-11T13:46:29.145Z,7.85
2023-05-11T13:48:55.890Z,6.57
2023-05-11T13:51:24.027Z,6.78
2023-05-11T13:53:50.582Z,6.97
2023-05-11T13:56:19.622Z,7.13
2023-05-11T13:58:46.282Z,6.65
2023-05-11T14:01:12.923Z,5.80
2023-05-11T14:03:39.798Z,6.85
2023-05-11T14:06:06.510Z,6.35
2023-05-11T14:08:33.186Z,6.82
2023-05-11T14:10:59.782Z,6.18
2023-05-11T14:13:26.402Z,5.72
2023-05-11T14:15:53.003Z,6.35
2023-05-11T14:18:19.773Z,5.95
2023-05-11T14:20:46.514Z,5.97
2023-05-11T14:23:13.612Z,6.45
2023-05-11T14:25:40.368Z,6.10
2023-05-11T14:28:07.437Z,6.70
2023-05-11T14:30:34.523Z,5.07
2023-05-11T14:33:01.861Z,5.85
2023-05-11T14:35:28.573Z,7.15
2023-05-11T14:37:56.908Z,6.10
2023-05-11T14:40:23.577Z,6.43
2023-05-11T14:42:50.247Z,6.85
2023-05-11T14:45:17.033Z,6.60
2023-05-11T14:47:43.968Z,7.38
2023-05-11T14:50:10.574Z,6.43
2023-05-11T14:52:37.868Z,8.10
2023-05-11T14:55:05.244Z,7.30
2023-05-11T14:57:31.796Z,6.82
2023-05-11T15:00:00.403Z,6.88
2023-05-11T15:02:27.575Z,7.15
2023-05-11T15:04:55.024Z,6.85
2023-05-11T15:07:21.604Z,6.70
2023-05-11T15:09:48.393Z,6.78
2023-05-11T15:12:14.950Z,6.68
2023-05-11T15:14:41.637Z,5.68
2023-05-11T15:17:08.620Z,8.18
2023-05-11T15:19:35.209Z,8.35
2023-05-11T15:22:01.762Z,6.55
2023-05-11T15:24:28.345Z,8.35
2023-05-11T15:26:54.948Z,7.03
2023-05-11T15:29:22.307Z,6.88
2023-05-11T15:31:49.018Z,7.20
2023-05-11T15:34:16.175Z,7.35
2023-05-11T15:36:42.890Z,8.45
2023-05-11T15:39:09.499Z,7.15
2023-05-11T15:41:36.103Z,8.07
2023-05-11T15:44:02.700Z,8.52
2023-05-11T15:46:29.361Z,7.13
2023-05-11T15:48:58.243Z,7.03
2023-05-11T15:51:26.260Z,7.80
2023-05-11T15:53:52.880Z,6.07
2023-05-11T15:56:19.583Z,6.93
2023-05-11T15:58:46.538Z,7.07
2023-05-11T16:01:13.175Z,5.90
2023-05-11T16:03:39.802Z,6.90
2023-05-11T16:06:06.666Z,6.68
2023-05-11T16:08:33.228Z,7.30
2023-05-11T16:10:59.838Z,7.55
2023-05-11T16:13:26.371Z,7.68
2023-05-11T16:15:52.917Z,6.82
2023-05-11T16:18:20.103Z,5.97
2023-05-11T16:20:46.854Z,8.63
2023-05-11T16:23:13.787Z,7.82
2023-05-11T16:25:40.402Z,7.93
2023-05-11T16:28:07.076Z,8.57
2023-05-11T16:30:33.777Z,6.80
2023-05-11T16:33:00.466Z,7.13
2023-05-11T16:35:27.269Z,9.98
2023-05-11T16:37:56.563Z,9.55
2023-05-11T16:40:23.188Z,10.00
2023-05-11T16:42:50.025Z,10.98
2023-05-11T16:45:16.884Z,9.07
2023-05-11T16:47:45.505Z,8.85
2023-05-11T16:50:16.283Z,8.40
2023-05-11T16:52:43.288Z,7.55
2023-05-11T16:55:10.324Z,8.05
2023-05-11T16:57:37.057Z,7.97
2023-05-11T17:00:04.409Z,9.05
2023-05-11T17:02:31.419Z,9.82
2023-05-11T17:04:58.090Z,8.00
2023-05-11T17:07:25.455Z,9.45
2023-05-11T17:09:56.379Z,8.00
2023-05-11T17:12:23.532Z,7.25
2023-05-11T17:14:50.179Z,9.23
2023-05-11T17:17:16.762Z,8.32
2023-05-11T17:19:43.370Z,8.80
2023-05-11T17:22:10.006Z,10.35
2023-05-11T17:24:37.367Z,8.45
2023-05-11T17:27:04.229Z,8.15
2023-05-11T17:29:31.085Z,9.20
2023-05-11T17:31:57.862Z,9.65
2023-05-11T17:34:27.973Z,9.80
2023-05-11T17:36:55.556Z,9.32
2023-05-11T17:39:22.154Z,10.60
2023-05-11T17:41:48.744Z,11.45
2023-05-11T17:44:15.362Z,11.75
2023-05-11T17:46:41.955Z,11.52
2023-05-11T17:49:08.916Z,12.07
2023-05-11T17:51:35.548Z,11.43
2023-05-11T17:54:02.234Z,10.65
2023-05-11T17:56:28.837Z,11.30
2023-05-11T17:58:56.250Z,10.45
2023-05-11T18:01:22.979Z,12.30
2023-05-11T18:03:50.262Z,11.32
2023-05-11T18:06:17.689Z,11.73
2023-05-11T18:08:44.494Z,11.65
2023-05-11T18:11:12.833Z,11.63
2023-05-11T18:13:39.811Z,11.27
2023-05-11T18:16:07.290Z,12.27
2023-05-11T18:18:34.184Z,13.73
2023-05-11T18:21:07.477Z,11.80
2023-05-11T18:23:34.543Z,14.57
2023-05-11T18:26:01.293Z,12.85
2023-05-11T18:28:28.217Z,12.57
2023-05-11T18:30:54.805Z,13.70
2023-05-11T18:33:21.620Z,14.73
2023-05-11T18:35:48.278Z,13.75
2023-05-11T18:38:14.824Z,12.63
2023-05-11T18:40:41.445Z,12.07
2023-05-11T18:43:08.651Z,11.73
2023-05-11T18:45:35.337Z,11.48
2023-05-11T18:48:02.771Z,12.63
2023-05-11T18:50:29.958Z,14.43
2023-05-11T18:52:57.246Z,14.77
2023-05-11T18:55:24.384Z,14.80
2023-05-11T18:57:52.119Z,16.30
2023-05-11T19:00:20.573Z,15.02
2023-05-11T19:02:48.250Z,16.27
2023-05-11T19:05:15.111Z,17.58
2023-05-11T19:07:42.127Z,16.63
2023-05-11T19:10:09.167Z,16.23
2023-05-11T19:12:35.864Z,16.67
2023-05-11T19:15:02.564Z,17.15
2023-05-11T19:17:29.364Z,16.33
2023-05-11T19:19:56.960Z,16.27
2023-05-11T19:22:26.602Z,15.48
2023-05-11T19:24:53.167Z,16.98
2023-05-11T19:27:19.757Z,16.77
2023-05-11T19:29:49.491Z,16.95
2023-05-11T19:32:16.210Z,19.13
2023-05-11T19:34:42.907Z,18.92
2023-05-11T19:37:09.514Z,19.55
2023-05-11T19:39:36.137Z,18.05
2023-05-11T19:42:02.749Z,17.35
2023-05-11T19:44:32.962Z,17.70
2023-05-11T19:46:59.726Z,17.38
2023-05-11T19:49:27.991Z,17.75
2023-05-11T19:51:54.580Z,16.98
2023-05-11T19:54:21.115Z,17.48
2023-05-11T19:56:47.838Z,18.90
2023-05-11T19:59:14.758Z,17.67
2023-05-11T20:01:41.565Z,18.52
2023-05-11T20:04:08.595Z,18.77
2023-05-11T20:06:35.192Z,20.02
2023-05-11T20:09:01.828Z,16.70
2023-05-11T20:11:28.569Z,19.25
2023-05-11T20:13:55.243Z,18.80
2023-05-11T20:16:21.925Z,21.50
2023-05-11T20:18:48.581Z,21.27
2023-05-11T20:21:15.844Z,18.90
2023-05-11T20:23:42.448Z,19.38
2023-05-11T20:26:09.187Z,21.70
2023-05-11T20:28:35.896Z,21.23
2023-05-11T20:31:02.498Z,21.20
2023-05-11T20:35:59.059Z,21.58
2023-05-11T20:38:25.734Z,20.95
2023-05-11T20:40:58.604Z,20.27
2023-05-11T20:43:28.023Z,19.88
2023-05-11T20:45:54.736Z,20.33
2023-05-11T20:48:28.948Z,17.48
2023-05-11T20:51:02.928Z,20.88
2023-05-11T20:53:30.925Z,20.27
2023-05-11T20:55:57.546Z,18.73
2023-05-11T20:58:24.185Z,21.77
2023-05-11T21:00:50.774Z,23.70
2023-05-11T21:03:17.588Z,20.33
2023-05-11T21:05:44.319Z,23.08
2023-05-11T21:08:10.885Z,21.23
2023-05-11T21:10:37.474Z,22.63
2023-05-11T21:13:04.029Z,21.05
2023-05-11T21:15:30.723Z,20.73
2023-05-11T21:17:57.395Z,20.80
2023-05-11T21:20:24.165Z,18.92
2023-05-11T21:22:51.205Z,21.60
2023-05-11T21:25:17.883Z,23.58
2023-05-11T21:27:44.430Z,22.25
2023-05-11T21:30:11.320Z,21.50
2023-05-11T21:32:38.035Z,20.35
2023-05-11T21:35:04.943Z,21.95
2023-05-11T21:37:33.752Z,20.95
2023-05-11T21:40:00.468Z,20.42
2023-05-11T21:42:27.109Z,20.33
2023-05-11T21:44:53.652Z,18.75
2023-05-11T21:47:20.317Z,21.25
2023-05-11T21:49:47.049Z,22.27
2023-05-11T21:52:13.656Z,19.75
2023-05-11T21:54:40.224Z,20.65
2023-05-11T21:57:06.807Z,18.15
2023-05-11T21:59:33.442Z,22.23
2023-05-11T22:02:00.210Z,22.75
2023-05-11T22:04:27.481Z,23.90
2023-05-11T22:06:57.073Z,22.30
2023-05-11T22:09:24.797Z,21.08
2023-05-11T22:11:51.478Z,21.27
2023-05-11T22:14:18.121Z,20.80
2023-05-11T22:16:44.753Z,23.65
2023-05-11T22:19:11.765Z,23.85
2023-05-11T22:21:38.358Z,21.38
2023-05-11T22:24:05.379Z,22.05
2023-05-11T22:26:31.992Z,20.70
2023-05-11T22:28:58.711Z,24.90
2023-05-11T22:31:26.842Z,23.88
2023-05-11T22:33:53.473Z,21.35
2023-05-11T22:36:20.018Z,22.13
2023-05-11T22:38:46.622Z,22.73
2023-05-11T22:41:13.415Z,21.10
2023-05-11T22:43:39.985Z,18.95
2023-05-11T22:46:07.065Z,19.10
2023-05-11T22:48:33.658Z,20.63
2023-05-11T22:51:00.261Z,22.10
2023-05-11T22:53:26.817Z,20.42
2023-05-11T22:55:53.630Z,21.08
2023-05-11T22:58:20.317Z,23.85
2023-05-11T23:00:47.045Z,20.38
2023-05-11T23:03:13.818Z,21.15
2023-05-11T23:05:40.427Z,22.65
2023-05-11T23:08:07.161Z,21.55
2023-05-11T23:10:33.765Z,21.40
2023-05-11T23:13:00.324Z,22.88
2023-05-11T23:15:26.974Z,22.90
2023-05-11T23:17:53.586Z,25.05
2023-05-11T23:20:20.573Z,20.50
2023-05-11T23:22:47.401Z,21.35
2023-05-11T23:25:14.073Z,23.35
2023-05-11T23:27:40.738Z,23.95
2023-05-11T23:30:07.793Z,22.85
2023-05-11T23:32:34.439Z,21.45
2023-05-11T23:35:01.105Z,22.85
2023-05-11T23:37:27.715Z,20.00
2023-05-11T23:39:54.299Z,20.73
2023-05-11T23:42:21.271Z,20.85
2023-05-11T23:44:47.919Z,21.05
2023-05-11T23:47:14.540Z,22.52
2023-05-11T23:49:41.128Z,26.75
2023-05-11T23:52:07.673Z,23.95
2023-05-11T23:54:34.258Z,23.83
2023-05-11T23:57:02.079Z,23.35
2023-05-11T23:59:28.664Z,23.50
